Melton Hill Observed Data For Previous 48 Hours

Caption
Day and Hour Reservoir Elevation (behind dam)* Tailwater Elevation (below dam)* Average Hourly Discharge*
12/10/2018 2 AM EST 793.86 738.08 5,884
12/10/2018 3 AM EST 793.95 738.12 5,998
12/10/2018 4 AM EST 793.98 738.13 6,044
12/10/2018 5 AM EST 794.05 738.15 5,979
12/10/2018 6 AM EST 794.05 738.28 6,012
12/10/2018 7 AM EST 794.03 739.80 11,790
12/10/2018 8 AM EST 794.01 740.04 12,193
12/10/2018 9 AM EST 793.97 740.11 12,204
12/10/2018 10 AM EST 793.92 740.10 12,216
12/10/2018 11 AM EST 793.89 740.11 12,197
12/10/2018 12 PM EST 793.87 740.11 12,136
12/10/2018 1 PM EST 793.83 740.11 12,070
12/10/2018 2 PM EST 793.80 740.12 12,061
12/10/2018 3 PM EST 793.76 740.15 12,050
12/10/2018 4 PM EST 793.72 740.16 12,046
12/10/2018 5 PM EST 793.68 740.16 12,052
12/10/2018 6 PM EST 793.65 740.17 12,046
12/10/2018 7 PM EST 793.63 740.17 12,025
12/10/2018 8 PM EST 793.62 740.16 12,009
12/10/2018 9 PM EST 793.62 740.17 11,996
12/10/2018 10 PM EST 793.61 740.21 11,989
12/10/2018 11 PM EST 793.61 740.19 11,963
12/11/2018 12 AM EST 793.61 740.20 11,943
12/11/2018 1 AM EST 793.60 740.22 12,025
12/11/2018 2 AM EST 793.77 738.64 6,123
12/11/2018 3 AM EST 793.77 738.46 5,870
12/11/2018 4 AM EST 793.78 739.97 11,637
12/11/2018 5 AM EST 793.79 740.27 12,179
12/11/2018 6 AM EST 793.79 740.40 12,531
12/11/2018 7 AM EST 793.72 740.40 12,556
12/11/2018 8 AM EST 793.70 740.43 12,568
12/11/2018 9 AM EST 793.70 740.41 12,506
12/11/2018 10 AM EST 793.69 740.39 12,435
12/11/2018 11 AM EST 793.68 740.39 12,432
12/11/2018 12 PM EST 793.66 740.43 12,430
12/11/2018 1 PM EST 793.64 740.43 12,428
12/11/2018 2 PM EST 793.63 740.37 12,281
12/11/2018 3 PM EST 793.60 740.37 12,265
12/11/2018 4 PM EST 793.59 740.39 12,254
12/11/2018 5 PM EST 793.58 740.39 12,308
12/11/2018 6 PM EST 793.56 740.42 12,254
12/11/2018 7 PM EST 793.55 740.44 12,341
12/11/2018 8 PM EST 793.52 740.45 12,312
12/11/2018 9 PM EST 793.51 740.45 12,307
12/11/2018 10 PM EST 793.48 740.45 12,263
12/11/2018 11 PM EST 793.47 740.46 12,314
12/12/2018 12 AM EST 793.44 740.48 12,388
12/12/2018 1 AM EST 793.42 740.48 12,398
12/12/2018 2 AM EST 793.40 740.48 12,394
12/12/2018 3 AM EST 793.38 740.48 12,397

Elevations are in feet above sea level. Discharges are in cubic feet per second and are reported at the end of the hour.